createdAt,value
2023-05-14T00:01:10.027Z,77.74
2023-05-14T00:06:11.597Z,78.28
2023-05-14T00:11:13.356Z,78.00
2023-05-14T00:16:14.977Z,77.70
2023-05-14T00:21:17.157Z,78.05
2023-05-14T00:26:18.770Z,77.71
2023-05-14T00:31:20.699Z,77.80
2023-05-14T00:36:22.282Z,77.32
2023-05-14T00:41:23.853Z,77.87
2023-05-14T00:46:26.206Z,77.71
2023-05-14T00:51:27.992Z,77.32
2023-05-14T00:56:29.819Z,77.25
2023-05-14T01:01:31.538Z,77.36
2023-05-14T01:06:48.199Z,77.79
2023-05-14T01:12:00.268Z,77.80
2023-05-14T01:17:04.460Z,77.64
2023-05-14T01:22:06.349Z,78.04
2023-05-14T01:27:08.130Z,78.03
2023-05-14T01:32:10.936Z,77.90
2023-05-14T01:37:12.948Z,78.25
2023-05-14T01:42:15.143Z,78.44
2023-05-14T01:47:16.782Z,78.94
2023-05-14T01:52:21.013Z,78.64
2023-05-14T01:57:22.720Z,79.53
2023-05-14T02:02:24.421Z,79.20
2023-05-14T02:07:26.028Z,79.63
2023-05-14T02:12:27.639Z,80.42
2023-05-14T02:17:29.298Z,80.59
2023-05-14T02:22:30.899Z,81.16
2023-05-14T02:27:32.460Z,81.16
2023-05-14T02:32:34.156Z,80.89
2023-05-14T02:37:35.885Z,81.44
2023-05-14T02:42:37.497Z,81.01
2023-05-14T02:47:39.075Z,82.10
2023-05-14T02:52:40.963Z,82.10
2023-05-14T02:57:42.584Z,83.33
2023-05-14T03:02:44.740Z,82.93
2023-05-14T03:07:46.672Z,83.03
2023-05-14T03:12:48.251Z,83.26
2023-05-14T03:17:49.913Z,83.50
2023-05-14T03:22:52.014Z,83.33
2023-05-14T03:27:53.628Z,83.61
2023-05-14T03:32:55.221Z,83.94
2023-05-14T03:37:59.146Z,84.41
2023-05-14T03:43:00.808Z,83.69
2023-05-14T03:48:02.960Z,84.22
2023-05-14T03:53:07.536Z,84.41
2023-05-14T03:58:14.229Z,84.16
2023-05-14T04:03:16.184Z,84.56
2023-05-14T04:08:17.884Z,84.00
2023-05-14T04:13:19.475Z,83.17
2023-05-14T04:18:21.105Z,83.30
2023-05-14T04:23:23.791Z,82.86
2023-05-14T04:28:25.682Z,82.04
2023-05-14T04:33:27.280Z,81.40
2023-05-14T04:38:28.863Z,80.96
2023-05-14T04:43:30.510Z,80.30
2023-05-14T04:48:32.165Z,80.07
2023-05-14T04:53:33.727Z,79.50
2023-05-14T04:58:35.439Z,78.51
2023-05-14T05:03:37.125Z,78.51
2023-05-14T05:08:38.736Z,77.37
2023-05-14T05:13:41.388Z,76.50
2023-05-14T05:18:44.630Z,76.18
2023-05-14T05:23:46.306Z,74.46
2023-05-14T05:28:48.087Z,73.98
2023-05-14T05:33:49.698Z,73.32
2023-05-14T05:38:51.381Z,73.26
2023-05-14T05:43:52.934Z,72.20
2023-05-14T05:48:54.554Z,71.66
2023-05-14T05:53:56.152Z,70.93
2023-05-14T05:58:57.723Z,71.16
2023-05-14T06:03:59.332Z,69.79
2023-05-14T06:09:01.999Z,70.27
2023-05-14T06:14:03.648Z,69.75
2023-05-14T06:19:06.258Z,68.35
2023-05-14T06:24:08.099Z,67.54
2023-05-14T06:29:09.723Z,66.31
2023-05-14T06:34:11.326Z,65.71
2023-05-14T06:39:12.997Z,65.30
2023-05-14T06:44:14.622Z,65.13
2023-05-14T06:49:16.265Z,64.55
2023-05-14T06:54:17.838Z,63.54
2023-05-14T06:59:19.457Z,62.61
2023-05-14T07:04:21.070Z,62.50
2023-05-14T07:09:22.701Z,63.08
2023-05-14T07:14:24.277Z,62.35
2023-05-14T07:19:28.588Z,62.19
2023-05-14T07:24:30.276Z,61.67
2023-05-14T07:29:34.869Z,60.67
2023-05-14T07:34:36.484Z,60.70
2023-05-14T07:39:38.382Z,60.64
2023-05-14T07:44:40.443Z,59.80
2023-05-14T07:49:42.075Z,59.33
2023-05-14T07:54:43.603Z,58.91
2023-05-14T07:59:45.312Z,58.37
2023-05-14T08:04:46.930Z,58.25
2023-05-14T08:09:48.488Z,57.74
2023-05-14T08:14:50.088Z,57.19
2023-05-14T08:19:52.966Z,57.46
2023-05-14T08:24:54.880Z,56.76
2023-05-14T08:29:56.604Z,56.50
2023-05-14T08:34:58.156Z,56.68
2023-05-14T08:39:59.860Z,56.52
2023-05-14T08:45:02.679Z,56.21
2023-05-14T08:50:06.320Z,55.47
2023-05-14T08:55:09.115Z,56.87
2023-05-14T09:00:11.890Z,58.30
2023-05-14T09:05:14.875Z,58.76
2023-05-14T09:10:17.374Z,58.30
2023-05-14T09:15:19.053Z,57.63
2023-05-14T09:20:21.131Z,54.72
2023-05-14T09:25:27.046Z,51.80
2023-05-14T09:30:28.682Z,52.24
2023-05-14T09:35:30.480Z,52.96
2023-05-14T09:40:32.167Z,54.07
2023-05-14T09:45:35.004Z,54.71
2023-05-14T09:50:43.730Z,54.63
2023-05-14T09:55:45.705Z,54.79
2023-05-14T10:00:47.957Z,54.30
2023-05-14T10:05:50.990Z,53.66
2023-05-14T10:10:54.416Z,53.46
2023-05-14T10:16:20.319Z,53.75
2023-05-14T10:21:22.549Z,53.71
2023-05-14T10:26:24.761Z,52.65
2023-05-14T10:31:45.118Z,51.65
2023-05-14T10:36:46.804Z,52.04
2023-05-14T10:41:48.432Z,51.99
2023-05-14T10:46:50.178Z,52.08
2023-05-14T10:51:53.185Z,51.81
2023-05-14T10:56:59.019Z,51.34
2023-05-14T11:02:00.658Z,52.00
2023-05-14T11:07:02.383Z,51.98
2023-05-14T11:12:04.037Z,54.99
2023-05-14T11:17:05.730Z,52.47
2023-05-14T11:22:08.068Z,51.51
2023-05-14T11:27:10.826Z,51.35
2023-05-14T11:32:13.212Z,52.42
2023-05-14T11:37:16.066Z,52.02
2023-05-14T11:42:19.507Z,51.42
2023-05-14T11:47:22.169Z,51.12
2023-05-14T11:52:23.802Z,51.06
2023-05-14T11:57:26.028Z,50.69
2023-05-14T12:02:30.535Z,50.99
2023-05-14T12:07:32.617Z,50.12
2023-05-14T12:12:37.617Z,50.26
2023-05-14T12:17:39.796Z,50.12
2023-05-14T12:22:43.053Z,50.56
2023-05-14T12:27:44.978Z,48.31
2023-05-14T12:32:46.760Z,47.89
2023-05-14T12:37:48.390Z,48.49
2023-05-14T12:42:50.095Z,46.65
2023-05-14T12:47:51.847Z,44.93
2023-05-14T12:52:53.444Z,45.49
2023-05-14T12:57:55.011Z,46.37
2023-05-14T13:02:56.645Z,46.94
2023-05-14T13:07:59.313Z,45.95
2023-05-14T13:13:02.429Z,46.55
2023-05-14T13:18:04.790Z,47.30
2023-05-14T13:23:06.465Z,47.50
2023-05-14T13:28:08.633Z,47.43
2023-05-14T13:33:10.380Z,48.02
2023-05-14T13:38:11.989Z,47.76
2023-05-14T13:43:14.885Z,47.00
2023-05-14T13:48:16.567Z,47.24
2023-05-14T13:53:19.755Z,47.43
2023-05-14T13:58:21.363Z,47.56
2023-05-14T14:03:23.017Z,48.16
2023-05-14T14:08:24.811Z,48.75
2023-05-14T14:13:26.461Z,47.66
2023-05-14T14:18:28.143Z,47.69
2023-05-14T14:23:29.753Z,47.81
2023-05-14T14:28:31.495Z,48.05
2023-05-14T14:33:33.130Z,49.05
2023-05-14T14:38:34.780Z,48.80
2023-05-14T14:43:41.103Z,49.38
2023-05-14T14:48:43.903Z,49.42
2023-05-14T14:53:45.515Z,49.19
2023-05-14T14:58:47.214Z,49.29
2023-05-14T15:03:49.169Z,48.43
2023-05-14T15:08:50.769Z,49.50
2023-05-14T15:13:52.348Z,48.98
2023-05-14T15:18:54.177Z,48.97
2023-05-14T15:23:56.122Z,49.68
2023-05-14T15:28:58.978Z,49.81
2023-05-14T15:34:00.812Z,50.46
2023-05-14T15:39:02.395Z,50.76
2023-05-14T15:44:05.330Z,50.97
2023-05-14T15:49:06.956Z,51.47
2023-05-14T15:54:08.596Z,50.81
2023-05-14T15:59:10.261Z,51.17
2023-05-14T16:04:12.006Z,50.94
2023-05-14T16:09:13.620Z,51.36
2023-05-14T16:14:15.287Z,51.92
2023-05-14T16:19:18.033Z,52.73
2023-05-14T16:24:19.843Z,52.70
2023-05-14T16:29:21.609Z,50.54
2023-05-14T16:34:23.177Z,51.18
2023-05-14T16:39:24.777Z,52.62
2023-05-14T16:44:26.331Z,53.86
2023-05-14T16:49:27.979Z,55.04
2023-05-14T16:54:29.908Z,55.25
2023-05-14T16:59:31.781Z,55.98
2023-05-14T17:04:38.666Z,55.33
2023-05-14T17:09:40.777Z,55.27
2023-05-14T17:14:42.367Z,55.58
2023-05-14T17:19:44.121Z,55.58
2023-05-14T17:24:45.823Z,54.99
2023-05-14T17:29:49.265Z,54.28
2023-05-14T17:34:50.928Z,54.48
2023-05-14T17:39:52.900Z,55.58
2023-05-14T17:44:54.509Z,56.62
2023-05-14T17:49:56.148Z,57.64
2023-05-14T17:54:57.696Z,58.73
2023-05-14T17:59:59.262Z,59.70
2023-05-14T18:05:02.683Z,60.60
2023-05-14T18:10:04.703Z,60.94
2023-05-14T18:15:06.897Z,61.70
2023-05-14T18:20:09.074Z,62.43
2023-05-14T18:25:10.763Z,63.44
2023-05-14T18:30:14.438Z,64.14
2023-05-14T18:35:16.163Z,65.03
2023-05-14T18:40:18.858Z,65.71
2023-05-14T18:45:21.540Z,66.12
2023-05-14T18:50:23.169Z,66.59
2023-05-14T18:55:25.069Z,66.96
2023-05-14T19:00:26.834Z,67.40
2023-05-14T19:05:28.418Z,67.06
2023-05-14T19:10:29.968Z,67.03
2023-05-14T19:15:32.337Z,66.77
2023-05-14T19:20:33.958Z,66.58
2023-05-14T19:25:35.614Z,66.71
2023-05-14T19:30:37.201Z,66.49
2023-05-14T19:35:38.830Z,66.28
2023-05-14T19:40:42.920Z,66.44
2023-05-14T19:45:45.839Z,66.20
2023-05-14T19:50:48.140Z,66.10
2023-05-14T19:55:49.940Z,66.26
2023-05-14T20:00:53.419Z,66.40
2023-05-14T20:05:55.810Z,66.23
2023-05-14T20:10:57.604Z,66.91
2023-05-14T20:16:00.058Z,67.38
2023-05-14T20:21:01.709Z,67.37
2023-05-14T20:26:03.968Z,69.41
2023-05-14T20:31:05.762Z,71.24
2023-05-14T20:36:07.525Z,71.40
2023-05-14T20:41:09.175Z,72.77
2023-05-14T20:46:10.816Z,72.94
2023-05-14T20:51:12.690Z,72.16
2023-05-14T20:56:14.313Z,72.59
2023-05-14T21:01:15.850Z,71.59
2023-05-14T21:06:17.423Z,70.87
2023-05-14T21:11:20.385Z,72.91
2023-05-14T21:16:22.134Z,72.24
2023-05-14T21:21:23.764Z,73.61
2023-05-14T21:26:25.895Z,71.27
2023-05-14T21:31:27.495Z,71.89
2023-05-14T21:36:29.118Z,71.08
2023-05-14T21:41:32.187Z,71.65
2023-05-14T21:46:33.817Z,72.31
2023-05-14T21:51:35.920Z,73.02
2023-05-14T21:56:37.543Z,73.91
2023-05-14T22:01:55.536Z,74.56
2023-05-14T22:07:00.676Z,74.70
2023-05-14T22:12:02.241Z,74.50
2023-05-14T22:17:04.635Z,74.47
2023-05-14T22:22:06.305Z,74.55
2023-05-14T22:27:07.931Z,74.56
2023-05-14T22:32:10.254Z,74.35
2023-05-14T22:37:11.821Z,74.65
2023-05-14T22:42:13.405Z,74.89
2023-05-14T22:47:15.039Z,75.95
2023-05-14T22:52:18.731Z,75.72
2023-05-14T22:57:20.461Z,74.94
2023-05-14T23:02:22.123Z,75.87
2023-05-14T23:07:23.702Z,76.75
2023-05-14T23:12:25.290Z,77.85
2023-05-14T23:17:27.074Z,77.13
2023-05-14T23:22:28.778Z,75.89
2023-05-14T23:27:30.426Z,76.54
2023-05-14T23:32:32.037Z,76.71
2023-05-14T23:37:33.756Z,76.55
2023-05-14T23:42:35.302Z,76.26
2023-05-14T23:47:36.988Z,77.67
2023-05-14T23:52:38.564Z,77.52
2023-05-14T23:57:40.907Z,77.92
